createdAt,value
2017-09-19T00:01:15.329Z,12.20
2017-09-19T00:03:43.574Z,12.20
2017-09-19T00:06:11.981Z,12.20
2017-09-19T00:08:40.999Z,12.20
2017-09-19T00:11:09.246Z,12.20
2017-09-19T00:13:37.797Z,12.20
2017-09-19T00:16:06.048Z,12.20
2017-09-19T00:18:34.290Z,12.20
2017-09-19T00:21:02.570Z,12.20
2017-09-19T00:23:31.582Z,12.20
2017-09-19T00:25:59.826Z,12.20
2017-09-19T00:28:28.315Z,12.20
2017-09-19T00:30:57.322Z,12.20
2017-09-19T00:33:26.334Z,12.20
2017-09-19T00:35:54.730Z,12.20
2017-09-19T00:38:22.978Z,12.20
2017-09-19T00:40:51.218Z,12.20
2017-09-19T00:43:19.486Z,12.20
2017-09-19T00:45:48.208Z,12.10
2017-09-19T00:48:17.226Z,12.00
2017-09-19T00:50:45.494Z,12.00
2017-09-19T00:53:13.737Z,12.00
2017-09-19T00:55:41.975Z,12.00
2017-09-19T00:58:10.448Z,12.10
2017-09-19T01:00:38.691Z,12.20
2017-09-19T01:03:07.706Z,12.20
2017-09-19T01:05:35.973Z,12.20
2017-09-19T01:08:04.223Z,12.20
2017-09-19T01:10:33.234Z,12.10
2017-09-19T01:13:01.510Z,12.10
2017-09-19T01:15:30.522Z,12.10
2017-09-19T01:17:58.767Z,12.10
2017-09-19T01:20:27.414Z,12.10
2017-09-19T01:22:55.659Z,12.10
2017-09-19T01:25:23.911Z,12.10
2017-09-19T01:27:53.954Z,12.10
2017-09-19T01:30:22.206Z,12.10
2017-09-19T01:32:50.467Z,12.10
2017-09-19T01:35:18.750Z,12.00
2017-09-19T01:37:47.007Z,12.00
2017-09-19T01:40:18.222Z,12.00
2017-09-19T01:42:47.411Z,12.00
2017-09-19T01:45:15.654Z,12.00
2017-09-19T01:47:44.692Z,12.00
2017-09-19T01:50:12.966Z,12.00
2017-09-19T01:52:41.222Z,12.00
2017-09-19T01:55:09.466Z,12.00
2017-09-19T01:57:37.746Z,12.00
2017-09-19T02:00:05.987Z,12.00
2017-09-19T02:02:34.226Z,12.00
2017-09-19T02:05:02.552Z,12.00
2017-09-19T02:07:30.792Z,12.00
2017-09-19T02:09:59.034Z,12.10
2017-09-19T02:12:27.314Z,12.10
2017-09-19T02:14:56.330Z,12.00
2017-09-19T02:17:25.270Z,12.00
2017-09-19T02:19:53.537Z,12.00
2017-09-19T02:22:21.778Z,12.00
2017-09-19T02:24:50.102Z,12.00
2017-09-19T02:27:18.435Z,12.00
2017-09-19T02:29:46.683Z,12.00
2017-09-19T02:32:14.925Z,12.00
2017-09-19T02:34:43.202Z,12.00
2017-09-19T02:37:11.458Z,12.00
2017-09-19T02:39:39.699Z,12.00
2017-09-19T02:42:09.479Z,11.90
2017-09-19T02:44:37.727Z,11.90
2017-09-19T02:47:05.971Z,11.90
2017-09-19T02:49:35.470Z,11.90
2017-09-19T02:52:03.717Z,11.90
2017-09-19T02:54:31.955Z,11.90
2017-09-19T02:57:00.218Z,11.90
2017-09-19T02:59:28.462Z,11.90
2017-09-19T03:01:57.481Z,11.80
2017-09-19T03:04:25.738Z,11.80
2017-09-19T03:06:54.760Z,11.90
2017-09-19T03:09:23.003Z,11.90
2017-09-19T03:11:51.486Z,11.90
2017-09-19T03:14:20.506Z,11.90
2017-09-19T03:16:48.746Z,11.90
2017-09-19T03:19:17.022Z,11.90
2017-09-19T03:21:45.308Z,11.90
2017-09-19T03:24:13.535Z,11.90
2017-09-19T03:26:42.994Z,11.90
2017-09-19T03:29:12.006Z,11.90
2017-09-19T03:31:40.259Z,11.90
2017-09-19T03:34:08.795Z,11.90
2017-09-19T03:36:37.034Z,11.90
2017-09-19T03:39:05.303Z,11.90
2017-09-19T03:41:34.492Z,11.90
2017-09-19T03:44:03.503Z,11.90
2017-09-19T03:46:31.752Z,11.90
2017-09-19T03:49:00.150Z,11.90
2017-09-19T03:51:29.681Z,11.90
2017-09-19T03:53:57.922Z,11.90
2017-09-19T03:56:27.266Z,11.80
2017-09-19T03:58:55.526Z,11.80
2017-09-19T04:01:23.775Z,11.80
2017-09-19T04:03:53.084Z,11.80
2017-09-19T04:06:21.327Z,11.70
2017-09-19T04:08:49.578Z,11.70
2017-09-19T04:11:17.868Z,11.70
2017-09-19T04:13:46.110Z,11.80
2017-09-19T04:16:14.355Z,11.80
2017-09-19T04:18:43.047Z,11.80
2017-09-19T04:21:11.289Z,11.70
2017-09-19T04:23:39.530Z,11.70
2017-09-19T04:26:07.806Z,11.70
2017-09-19T04:28:36.124Z,11.70
2017-09-19T04:31:04.374Z,11.70
2017-09-19T04:33:32.713Z,11.70
2017-09-19T04:36:01.147Z,11.70
2017-09-19T04:38:29.379Z,11.70
2017-09-19T04:40:58.098Z,11.70
2017-09-19T04:43:27.319Z,11.70
2017-09-19T04:45:55.736Z,11.70
2017-09-19T04:48:23.978Z,11.60
2017-09-19T04:50:52.254Z,11.50
2017-09-19T04:53:20.870Z,11.40
2017-09-19T04:55:49.921Z,11.20
2017-09-19T04:58:18.162Z,11.20
2017-09-19T05:00:46.446Z,11.20
2017-09-19T05:03:15.211Z,11.10
2017-09-19T05:05:44.230Z,11.00
2017-09-19T05:08:12.482Z,11.00
2017-09-19T05:10:40.762Z,10.90
2017-09-19T05:13:09.027Z,10.90
2017-09-19T05:15:37.276Z,10.80
2017-09-19T05:18:05.550Z,10.80
2017-09-19T05:20:33.806Z,10.70
2017-09-19T05:23:03.234Z,10.70
2017-09-19T05:25:31.807Z,10.70
2017-09-19T05:28:00.038Z,10.70
2017-09-19T05:30:28.314Z,10.70
2017-09-19T05:32:56.588Z,10.70
2017-09-19T05:35:24.871Z,10.70
2017-09-19T05:37:53.127Z,10.80
2017-09-19T05:40:21.402Z,10.80
2017-09-19T05:42:50.565Z,10.90
2017-09-19T05:45:18.806Z,10.80
2017-09-19T05:47:47.715Z,10.90
2017-09-19T05:50:15.967Z,11.00
2017-09-19T05:52:44.210Z,11.10
2017-09-19T05:55:12.832Z,11.10
2017-09-19T05:57:41.084Z,11.20
2017-09-19T06:00:09.338Z,11.30
2017-09-19T06:02:37.610Z,11.30
2017-09-19T06:05:05.860Z,11.30
2017-09-19T06:07:35.350Z,11.30
2017-09-19T06:10:04.006Z,11.30
2017-09-19T06:12:32.267Z,11.30
2017-09-19T06:15:00.514Z,11.30
2017-09-19T06:17:28.792Z,11.20
2017-09-19T06:19:57.034Z,11.20
2017-09-19T06:22:25.354Z,11.20
2017-09-19T06:24:53.611Z,11.20
2017-09-19T06:27:22.020Z,11.20
2017-09-19T06:29:50.347Z,11.30
2017-09-19T06:32:18.718Z,11.40
2017-09-19T06:34:46.970Z,11.40
2017-09-19T06:37:15.222Z,11.50
2017-09-19T06:39:43.498Z,11.50
2017-09-19T06:42:11.759Z,11.60
2017-09-19T06:44:40.060Z,11.60
2017-09-19T06:47:08.343Z,11.60
2017-09-19T06:49:36.599Z,11.70
2017-09-19T06:52:04.851Z,11.80
2017-09-19T06:54:33.646Z,11.80
2017-09-19T06:57:02.251Z,11.80
2017-09-19T06:59:30.489Z,11.80
2017-09-19T07:01:58.770Z,11.80
2017-09-19T07:04:27.036Z,11.80
2017-09-19T07:06:55.294Z,11.90
2017-09-19T07:09:23.590Z,12.00
2017-09-19T07:11:51.856Z,12.00
2017-09-19T07:14:20.106Z,12.00
2017-09-19T07:16:48.871Z,12.00
2017-09-19T07:19:17.114Z,12.00
2017-09-19T07:21:45.366Z,12.00
2017-09-19T07:24:14.511Z,11.90
2017-09-19T07:26:42.759Z,11.90
2017-09-19T07:29:11.017Z,11.90
2017-09-19T07:31:39.293Z,11.80
2017-09-19T07:34:08.304Z,12.00
2017-09-19T07:36:36.561Z,12.00
2017-09-19T07:39:05.654Z,12.30
2017-09-19T07:41:34.670Z,12.40
2017-09-19T07:44:02.934Z,12.40
2017-09-19T07:46:31.314Z,12.50
2017-09-19T07:48:59.550Z,12.70
2017-09-19T07:51:27.814Z,12.80
2017-09-19T07:53:56.234Z,13.00
2017-09-19T07:56:25.246Z,13.10
2017-09-19T07:58:53.816Z,13.10
2017-09-19T08:01:23.272Z,13.30
2017-09-19T08:03:51.525Z,13.30
2017-09-19T08:06:19.782Z,13.40
2017-09-19T08:08:48.066Z,13.50
2017-09-19T08:11:16.318Z,13.50
2017-09-19T08:13:44.579Z,13.50
2017-09-19T08:16:12.850Z,13.50
2017-09-19T08:18:41.137Z,13.60
2017-09-19T08:21:09.382Z,13.60
2017-09-19T08:23:38.073Z,13.70
2017-09-19T08:26:06.325Z,13.70
2017-09-19T08:28:34.746Z,13.80
2017-09-19T08:31:03.014Z,13.80
2017-09-19T08:33:31.266Z,13.90
2017-09-19T08:35:59.533Z,14.00
2017-09-19T08:38:27.794Z,14.00
2017-09-19T08:40:56.041Z,14.10
2017-09-19T08:43:24.412Z,14.10
2017-09-19T08:45:53.192Z,14.10
2017-09-19T08:48:21.432Z,14.10
2017-09-19T08:50:49.679Z,14.10
2017-09-19T08:53:17.950Z,14.20
2017-09-19T08:55:46.950Z,14.60
2017-09-19T08:58:16.104Z,14.80
2017-09-19T09:00:44.640Z,14.80
2017-09-19T09:03:12.894Z,14.90
2017-09-19T09:05:41.266Z,14.80
2017-09-19T09:08:10.131Z,14.80
2017-09-19T09:10:38.403Z,14.70
2017-09-19T09:13:06.646Z,14.60
2017-09-19T09:15:34.922Z,14.60
2017-09-19T09:18:03.170Z,14.50
2017-09-19T09:20:31.417Z,14.50
2017-09-19T09:22:59.734Z,14.50
2017-09-19T09:25:28.747Z,14.50
2017-09-19T09:27:57.074Z,14.50
2017-09-19T09:30:25.849Z,14.50
2017-09-19T09:32:54.093Z,14.50
2017-09-19T09:35:22.348Z,14.60
2017-09-19T09:37:50.622Z,14.60
2017-09-19T09:40:19.642Z,14.70
2017-09-19T09:42:47.882Z,14.70
2017-09-19T09:45:16.227Z,14.70
2017-09-19T09:47:44.451Z,14.70
2017-09-19T09:50:13.462Z,14.90
2017-09-19T09:52:42.164Z,14.80
2017-09-19T09:55:10.406Z,15.00
2017-09-19T09:57:39.414Z,15.40
2017-09-19T10:00:07.862Z,15.40
2017-09-19T10:02:36.991Z,15.70
2017-09-19T10:05:05.301Z,15.70
2017-09-19T10:07:33.619Z,15.90
2017-09-19T10:10:02.678Z,16.20
2017-09-19T10:12:30.923Z,16.20
2017-09-19T10:14:59.458Z,16.30
2017-09-19T10:17:27.756Z,16.40
2017-09-19T10:19:55.995Z,16.70
2017-09-19T10:22:24.270Z,16.90
2017-09-19T10:24:52.574Z,17.10
2017-09-19T10:27:21.861Z,17.30
2017-09-19T10:29:50.132Z,17.70
2017-09-19T10:32:18.374Z,18.20
2017-09-19T10:34:46.620Z,19.10
2017-09-19T10:37:15.754Z,20.40
2017-09-19T10:39:43.995Z,20.40
2017-09-19T10:42:12.278Z,21.20
2017-09-19T10:44:40.547Z,21.40
2017-09-19T10:47:10.867Z,19.60
2017-09-19T10:49:39.123Z,19.50
2017-09-19T10:52:08.483Z,19.40
2017-09-19T10:54:36.776Z,19.60
2017-09-19T10:57:05.020Z,19.50
2017-09-19T10:59:34.306Z,19.20
2017-09-19T11:02:03.322Z,19.70
2017-09-19T11:04:31.976Z,19.70
2017-09-19T11:07:01.042Z,19.60
2017-09-19T11:09:29.342Z,19.60
2017-09-19T11:11:57.588Z,19.70
2017-09-19T11:14:26.011Z,19.80
2017-09-19T11:16:55.035Z,20.30
2017-09-19T11:19:23.279Z,20.30
2017-09-19T11:21:51.826Z,19.90
2017-09-19T11:24:20.110Z,19.30
2017-09-19T11:26:48.374Z,19.00
2017-09-19T11:29:17.419Z,18.70
2017-09-19T11:31:45.662Z,18.70
2017-09-19T11:34:13.915Z,18.50
2017-09-19T11:36:42.174Z,18.50
2017-09-19T11:39:10.511Z,18.50
2017-09-19T11:41:38.765Z,18.70
2017-09-19T11:44:07.527Z,18.80
2017-09-19T11:46:35.774Z,19.30
2017-09-19T11:49:04.014Z,20.20
2017-09-19T11:51:32.298Z,21.20
2017-09-19T11:54:00.554Z,22.00
2017-09-19T11:56:32.758Z,21.80
2017-09-19T11:59:01.791Z,20.50
2017-09-19T12:01:32.246Z,20.50
2017-09-19T12:04:00.499Z,19.90
2017-09-19T12:06:28.877Z,19.60
2017-09-19T12:08:57.113Z,19.50
2017-09-19T12:11:26.132Z,19.10
2017-09-19T12:13:54.618Z,19.00
2017-09-19T12:16:24.978Z,19.00
2017-09-19T12:18:53.222Z,18.80
2017-09-19T12:21:22.012Z,18.80
2017-09-19T12:23:50.425Z,18.60
2017-09-19T12:26:18.671Z,18.60
2017-09-19T12:28:47.032Z,18.50
2017-09-19T12:31:15.450Z,18.60
2017-09-19T12:33:43.687Z,18.70
2017-09-19T12:36:11.958Z,18.80
2017-09-19T12:38:40.392Z,18.70
2017-09-19T12:41:08.772Z,18.80
2017-09-19T12:43:37.043Z,18.90
2017-09-19T12:46:05.281Z,18.80
2017-09-19T12:48:34.523Z,18.70
2017-09-19T12:51:02.991Z,18.80
2017-09-19T12:53:32.194Z,18.90
2017-09-19T12:56:01.524Z,19.00
2017-09-19T12:58:29.914Z,19.00
2017-09-19T13:00:58.937Z,19.10
2017-09-19T13:03:27.255Z,19.10
2017-09-19T13:05:58.723Z,19.00
2017-09-19T13:08:27.159Z,18.90
2017-09-19T13:10:55.464Z,18.70
2017-09-19T13:13:23.914Z,18.50
2017-09-19T13:15:52.257Z,18.50
2017-09-19T13:18:21.295Z,18.30
2017-09-19T13:20:49.550Z,18.30
2017-09-19T13:23:17.974Z,18.20
2017-09-19T13:25:46.354Z,18.20
2017-09-19T13:28:14.622Z,18.20
2017-09-19T13:30:45.581Z,18.10
2017-09-19T13:33:26.009Z,18.10
2017-09-19T13:35:54.281Z,18.20
2017-09-19T13:38:22.535Z,18.40
2017-09-19T13:40:50.798Z,18.60
2017-09-19T13:43:19.814Z,18.90
2017-09-19T13:45:48.054Z,18.90
2017-09-19T13:48:16.712Z,19.00
2017-09-19T13:50:44.968Z,19.00
2017-09-19T13:53:13.275Z,19.10
2017-09-19T13:55:41.642Z,19.20
2017-09-19T13:58:09.881Z,19.40
2017-09-19T14:00:38.134Z,19.80
2017-09-19T14:03:07.171Z,20.00
2017-09-19T14:05:35.482Z,20.00
2017-09-19T14:08:03.734Z,20.10
2017-09-19T14:10:33.211Z,20.40
2017-09-19T14:13:01.472Z,20.40
2017-09-19T14:15:29.952Z,21.20
2017-09-19T14:17:59.170Z,21.60
2017-09-19T14:20:27.598Z,21.60
2017-09-19T14:22:55.847Z,21.30
2017-09-19T14:25:24.142Z,21.00
2017-09-19T14:27:52.411Z,20.90
2017-09-19T14:30:20.805Z,20.70
2017-09-19T14:32:49.078Z,20.60
2017-09-19T14:35:17.562Z,20.70
2017-09-19T14:37:45.946Z,20.60
2017-09-19T14:40:14.717Z,20.50
2017-09-19T14:42:43.103Z,20.50
2017-09-19T14:45:11.347Z,20.50
2017-09-19T14:47:39.788Z,20.40
2017-09-19T14:50:08.802Z,20.20
2017-09-19T14:52:37.507Z,20.20
2017-09-19T14:55:05.786Z,20.30
2017-09-19T14:57:34.196Z,20.60
2017-09-19T15:00:02.575Z,21.50
2017-09-19T15:02:31.034Z,22.20
2017-09-19T15:04:59.326Z,22.30
2017-09-19T15:07:30.206Z,22.50
2017-09-19T15:09:59.243Z,22.30
2017-09-19T15:12:28.766Z,22.40
2017-09-19T15:14:58.067Z,23.40
2017-09-19T15:17:26.369Z,23.20
2017-09-19T15:19:54.613Z,22.70
2017-09-19T15:22:22.910Z,21.80
2017-09-19T15:24:51.670Z,21.10
2017-09-19T15:27:19.906Z,21.00
2017-09-19T15:29:48.371Z,21.80
2017-09-19T15:32:16.626Z,22.80
2017-09-19T15:34:46.022Z,22.60
2017-09-19T15:37:14.267Z,22.00
2017-09-19T15:39:42.554Z,21.20
2017-09-19T15:42:10.858Z,20.60
2017-09-19T15:44:39.546Z,20.10
2017-09-19T15:47:07.991Z,19.80
2017-09-19T15:49:37.227Z,19.50
2017-09-19T15:52:05.606Z,19.30
2017-09-19T15:54:34.025Z,19.00
2017-09-19T15:57:04.398Z,18.80
2017-09-19T15:59:32.906Z,18.80
2017-09-19T16:02:03.146Z,18.70
2017-09-19T16:04:32.170Z,18.70
2017-09-19T16:07:00.494Z,18.60
2017-09-19T16:09:29.107Z,18.50
2017-09-19T16:11:57.555Z,18.40
2017-09-19T16:14:28.403Z,18.40
2017-09-19T16:16:56.873Z,18.50
2017-09-19T16:19:26.378Z,18.40
2017-09-19T16:21:55.813Z,18.40
2017-09-19T16:24:24.098Z,18.20
2017-09-19T16:26:53.110Z,18.00
2017-09-19T16:29:22.683Z,18.00
2017-09-19T16:31:51.495Z,17.90
2017-09-19T16:34:21.567Z,17.70
2017-09-19T16:36:49.829Z,17.70
2017-09-19T16:39:19.421Z,17.70
2017-09-19T16:41:47.659Z,17.60
2017-09-19T16:44:17.258Z,17.50
2017-09-19T16:46:45.640Z,17.40
2017-09-19T16:49:14.927Z,17.40
2017-09-19T16:51:43.294Z,17.40
2017-09-19T16:54:11.618Z,17.30
2017-09-19T16:56:40.042Z,17.30
2017-09-19T16:59:08.303Z,17.20
2017-09-19T17:01:36.854Z,17.20
2017-09-19T17:04:05.104Z,17.10
2017-09-19T17:06:33.573Z,17.10
2017-09-19T17:09:05.772Z,17.10
2017-09-19T17:11:34.955Z,17.10
2017-09-19T17:14:04.244Z,17.10
2017-09-19T17:16:33.310Z,17.00
2017-09-19T17:19:02.567Z,16.90
2017-09-19T17:21:32.033Z,16.80
2017-09-19T17:24:00.285Z,16.80
2017-09-19T17:26:29.620Z,16.80
2017-09-19T17:28:57.887Z,16.70
2017-09-19T17:31:26.291Z,16.70
2017-09-19T17:33:54.648Z,16.70
2017-09-19T17:36:23.031Z,16.60
2017-09-19T17:38:51.360Z,16.60
2017-09-19T17:41:19.618Z,16.60
2017-09-19T17:43:48.781Z,16.50
2017-09-19T17:46:18.102Z,16.40
2017-09-19T17:48:46.354Z,16.40
2017-09-19T17:51:14.774Z,16.30
2017-09-19T17:53:43.254Z,16.30
2017-09-19T17:56:13.435Z,16.20
2017-09-19T17:58:41.854Z,16.20
2017-09-19T18:01:10.292Z,16.10
2017-09-19T18:03:38.531Z,16.20
2017-09-19T18:06:06.782Z,16.20
2017-09-19T18:08:35.975Z,16.10
2017-09-19T18:11:05.002Z,16.10
2017-09-19T18:13:33.323Z,16.10
2017-09-19T18:16:01.732Z,16.00
2017-09-19T18:18:31.034Z,16.00
2017-09-19T18:21:00.062Z,15.90
2017-09-19T18:23:28.721Z,15.90
2017-09-19T18:25:58.940Z,15.90
2017-09-19T18:28:27.286Z,15.90
2017-09-19T18:30:55.560Z,15.90
2017-09-19T18:33:23.823Z,15.90
2017-09-19T18:35:52.130Z,15.90
2017-09-19T18:38:20.570Z,15.90
2017-09-19T18:40:48.883Z,15.90
2017-09-19T18:43:17.263Z,15.90
2017-09-19T18:45:46.018Z,16.00
2017-09-19T18:48:14.386Z,15.90
2017-09-19T18:50:42.646Z,15.90
2017-09-19T18:53:10.908Z,15.80
2017-09-19T18:55:39.151Z,15.80
2017-09-19T18:58:07.526Z,15.80
2017-09-19T19:00:35.938Z,15.70
2017-09-19T19:03:04.982Z,15.60
2017-09-19T19:05:33.239Z,15.50
2017-09-19T19:08:02.763Z,15.50
2017-09-19T19:10:31.022Z,15.50
2017-09-19T19:12:59.340Z,15.50
2017-09-19T19:15:27.615Z,15.50
2017-09-19T19:17:55.871Z,15.50
2017-09-19T19:20:26.323Z,15.50
2017-09-19T19:22:54.860Z,15.40
2017-09-19T19:25:23.125Z,15.40
2017-09-19T19:27:51.475Z,15.50
2017-09-19T19:30:19.912Z,15.70
2017-09-19T19:32:49.168Z,15.70
2017-09-19T19:35:19.434Z,15.70
2017-09-19T19:37:48.691Z,15.70
2017-09-19T19:40:17.962Z,15.70
2017-09-19T19:42:46.351Z,15.60
2017-09-19T19:45:20.330Z,15.60
2017-09-19T19:47:50.794Z,15.60
2017-09-19T19:50:19.162Z,15.60
2017-09-19T19:52:47.543Z,15.50
2017-09-19T19:55:15.838Z,15.40
2017-09-19T19:57:44.907Z,15.40
2017-09-19T20:00:13.176Z,15.30
2017-09-19T20:02:42.601Z,15.30
2017-09-19T20:05:10.843Z,15.40
2017-09-19T20:07:39.110Z,15.40
2017-09-19T20:10:07.514Z,15.50
2017-09-19T20:12:36.690Z,15.40
2017-09-19T20:15:05.192Z,15.40
2017-09-19T20:17:33.430Z,15.40
2017-09-19T20:20:01.682Z,15.30
2017-09-19T20:22:30.300Z,15.20
2017-09-19T20:24:58.546Z,15.20
2017-09-19T20:27:27.571Z,15.00
2017-09-19T20:29:55.843Z,14.90
2017-09-19T20:32:24.091Z,14.80
2017-09-19T20:34:52.346Z,14.80
2017-09-19T20:37:21.198Z,14.70
2017-09-19T20:39:49.456Z,14.70
2017-09-19T20:42:17.702Z,14.80
2017-09-19T20:44:46.114Z,14.90
2017-09-19T20:47:15.112Z,14.90
2017-09-19T20:49:43.354Z,14.90
2017-09-19T20:52:12.394Z,15.00
2017-09-19T20:54:40.655Z,15.00
2017-09-19T20:57:08.890Z,15.00
2017-09-19T20:59:38.766Z,14.90
2017-09-19T21:02:07.029Z,14.90
2017-09-19T21:04:40.977Z,14.90
2017-09-19T21:07:14.935Z,14.80
2017-09-19T21:09:48.805Z,14.80
2017-09-19T21:12:22.726Z,14.70
2017-09-19T21:14:57.671Z,14.50
2017-09-19T21:17:31.593Z,14.60
2017-09-19T21:19:59.366Z,14.50
2017-09-19T21:22:27.610Z,14.60
2017-09-19T21:24:56.975Z,14.60
2017-09-19T21:27:25.255Z,14.60
2017-09-19T21:29:53.502Z,14.50
2017-09-19T21:32:21.746Z,14.50
2017-09-19T21:34:50.938Z,14.40
2017-09-19T21:37:19.182Z,14.40
2017-09-19T21:39:47.422Z,14.40
2017-09-19T21:42:15.698Z,14.30
2017-09-19T21:44:43.957Z,14.30
2017-09-19T21:47:12.958Z,14.30
2017-09-19T21:49:42.102Z,14.20
2017-09-19T21:52:10.330Z,14.20
2017-09-19T21:54:38.586Z,14.30
2017-09-19T21:57:07.430Z,14.20
2017-09-19T21:59:35.730Z,14.20
2017-09-19T22:02:03.975Z,14.20
2017-09-19T22:04:32.238Z,14.20
2017-09-19T22:07:00.486Z,14.20
2017-09-19T22:09:28.726Z,14.20
2017-09-19T22:11:57.207Z,14.20
2017-09-19T22:14:25.468Z,14.20
2017-09-19T22:16:53.698Z,14.20
2017-09-19T22:19:22.862Z,14.20
2017-09-19T22:21:51.098Z,14.20
2017-09-19T22:24:19.422Z,14.20
2017-09-19T22:26:47.830Z,14.20
2017-09-19T22:29:16.842Z,14.20
2017-09-19T22:31:45.087Z,14.20
2017-09-19T22:34:13.378Z,14.20
2017-09-19T22:36:42.395Z,14.30
2017-09-19T22:39:10.642Z,14.20
2017-09-19T22:41:39.479Z,14.40
2017-09-19T22:44:07.723Z,14.50
2017-09-19T22:46:35.962Z,14.40
2017-09-19T22:49:04.240Z,14.40
2017-09-19T22:51:32.478Z,14.30
2017-09-19T22:54:00.726Z,14.20
2017-09-19T22:56:29.787Z,14.20
2017-09-19T22:58:58.077Z,14.20
2017-09-19T23:01:26.326Z,14.20
2017-09-19T23:03:54.918Z,14.20
2017-09-19T23:06:23.159Z,14.20
2017-09-19T23:08:51.402Z,14.10
2017-09-19T23:11:19.673Z,14.00
2017-09-19T23:13:48.683Z,14.00
2017-09-19T23:16:17.694Z,13.90
2017-09-19T23:18:45.970Z,13.90
2017-09-19T23:21:14.215Z,13.80
2017-09-19T23:23:43.222Z,13.90
2017-09-19T23:26:12.334Z,13.90
2017-09-19T23:28:40.896Z,13.90
2017-09-19T23:31:09.139Z,13.80
2017-09-19T23:33:37.418Z,13.80
2017-09-19T23:36:05.659Z,13.70
2017-09-19T23:38:33.899Z,13.70
2017-09-19T23:41:02.167Z,13.70
2017-09-19T23:43:30.415Z,13.80
2017-09-19T23:45:58.703Z,13.80
2017-09-19T23:48:27.438Z,13.70
2017-09-19T23:50:55.690Z,13.60
2017-09-19T23:53:23.998Z,13.60
2017-09-19T23:55:52.271Z,13.60
2017-09-19T23:58:20.520Z,13.60
